sensor_id;sensor_type;location;lat;lon;timestamp;P1;durP1;ratioP1;P2;durP2;ratioP2
13566;SDS011;6855;48.112;11.298;2022-08-18T00:01:41;5.93;;;5.17;;
13566;SDS011;6855;48.112;11.298;2022-08-18T00:04:10;7.57;;;5.40;;
13566;SDS011;6855;48.112;11.298;2022-08-18T00:06:38;7.70;;;4.67;;
13566;SDS011;6855;48.112;11.298;2022-08-18T00:09:07;9.10;;;5.13;;
13566;SDS011;6855;48.112;11.298;2022-08-18T00:11:35;8.63;;;5.50;;
13566;SDS011;6855;48.112;11.298;2022-08-18T00:14:02;7.67;;;5.33;;
13566;SDS011;6855;48.112;11.298;2022-08-18T00:16:30;9.43;;;5.27;;
13566;SDS011;6855;48.112;11.298;2022-08-18T00:18:57;6.53;;;5.20;;
13566;SDS011;6855;48.112;11.298;2022-08-18T00:21:24;5.97;;;5.10;;
13566;SDS011;6855;48.112;11.298;2022-08-18T00:23:53;7.77;;;5.20;;
13566;SDS011;6855;48.112;11.298;2022-08-18T00:26:20;7.20;;;5.30;;
13566;SDS011;6855;48.112;11.298;2022-08-18T00:28:47;5.40;;;4.90;;
13566;SDS011;6855;48.112;11.298;2022-08-18T00:31:15;7.80;;;5.17;;
13566;SDS011;6855;48.112;11.298;2022-08-18T00:33:42;6.80;;;5.40;;
13566;SDS011;6855;48.112;11.298;2022-08-18T00:36:09;5.83;;;4.77;;
13566;SDS011;6855;48.112;11.298;2022-08-18T00:38:36;5.57;;;5.07;;
13566;SDS011;6855;48.112;11.298;2022-08-18T00:41:05;8.00;;;5.60;;
13566;SDS011;6855;48.112;11.298;2022-08-18T00:43:34;5.90;;;5.30;;
13566;SDS011;6855;48.112;11.298;2022-08-18T00:46:05;8.80;;;5.03;;
13566;SDS011;6855;48.112;11.298;2022-08-18T00:48:33;6.93;;;5.30;;
13566;SDS011;6855;48.112;11.298;2022-08-18T00:51:01;5.70;;;5.13;;
13566;SDS011;6855;48.112;11.298;2022-08-18T00:53:31;7.90;;;5.40;;
13566;SDS011;6855;48.112;11.298;2022-08-18T00:56:02;5.80;;;5.20;;
13566;SDS011;6855;48.112;11.298;2022-08-18T00:58:33;10.27;;;5.57;;
13566;SDS011;6855;48.112;11.298;2022-08-18T01:01:02;6.17;;;5.27;;
13566;SDS011;6855;48.112;11.298;2022-08-18T01:03:30;5.73;;;5.13;;
13566;SDS011;6855;48.112;11.298;2022-08-18T01:05:59;5.43;;;4.90;;
13566;SDS011;6855;48.112;11.298;2022-08-18T01:08:27;7.57;;;5.53;;
13566;SDS011;6855;48.112;11.298;2022-08-18T01:10:55;6.03;;;5.43;;
13566;SDS011;6855;48.112;11.298;2022-08-18T01:13:24;6.50;;;5.37;;
13566;SDS011;6855;48.112;11.298;2022-08-18T01:15:54;6.17;;;4.90;;
13566;SDS011;6855;48.112;11.298;2022-08-18T01:18:22;6.50;;;5.30;;
13566;SDS011;6855;48.112;11.298;2022-08-18T01:21:07;10.20;;;5.40;;
13566;SDS011;6855;48.112;11.298;2022-08-18T01:23:55;10.40;;;6.20;;
13566;SDS011;6855;48.112;11.298;2022-08-18T01:26:23;7.40;;;5.33;;
13566;SDS011;6855;48.112;11.298;2022-08-18T01:28:51;5.90;;;5.33;;
13566;SDS011;6855;48.112;11.298;2022-08-18T01:31:29;6.30;;;5.40;;
13566;SDS011;6855;48.112;11.298;2022-08-18T01:33:58;5.10;;;4.60;;
13566;SDS011;6855;48.112;11.298;2022-08-18T01:36:25;5.60;;;5.00;;
13566;SDS011;6855;48.112;11.298;2022-08-18T01:38:52;5.70;;;5.10;;
13566;SDS011;6855;48.112;11.298;2022-08-18T01:41:21;7.43;;;5.40;;
13566;SDS011;6855;48.112;11.298;2022-08-18T01:43:50;6.13;;;5.07;;
13566;SDS011;6855;48.112;11.298;2022-08-18T01:46:17;5.53;;;5.03;;
13566;SDS011;6855;48.112;11.298;2022-08-18T01:48:45;9.30;;;5.47;;
13566;SDS011;6855;48.112;11.298;2022-08-18T01:51:13;7.00;;;5.53;;
13566;SDS011;6855;48.112;11.298;2022-08-18T01:53:41;6.43;;;5.47;;
13566;SDS011;6855;48.112;11.298;2022-08-18T01:56:10;6.20;;;4.93;;
13566;SDS011;6855;48.112;11.298;2022-08-18T01:58:44;6.03;;;5.27;;
13566;SDS011;6855;48.112;11.298;2022-08-18T02:01:12;5.60;;;5.00;;
13566;SDS011;6855;48.112;11.298;2022-08-18T02:03:40;5.50;;;4.90;;
13566;SDS011;6855;48.112;11.298;2022-08-18T02:06:09;6.20;;;4.83;;
13566;SDS011;6855;48.112;11.298;2022-08-18T02:08:37;5.90;;;5.03;;
13566;SDS011;6855;48.112;11.298;2022-08-18T02:11:05;5.30;;;4.80;;
13566;SDS011;6855;48.112;11.298;2022-08-18T02:13:32;5.90;;;4.87;;
13566;SDS011;6855;48.112;11.298;2022-08-18T02:16:02;5.80;;;4.50;;
13566;SDS011;6855;48.112;11.298;2022-08-18T02:18:30;5.60;;;4.53;;
13566;SDS011;6855;48.112;11.298;2022-08-18T02:21:03;5.30;;;4.80;;
13566;SDS011;6855;48.112;11.298;2022-08-18T02:23:31;7.20;;;4.80;;
13566;SDS011;6855;48.112;11.298;2022-08-18T02:26:02;6.20;;;4.40;;
13566;SDS011;6855;48.112;11.298;2022-08-18T02:28:29;5.33;;;4.83;;
13566;SDS011;6855;48.112;11.298;2022-08-18T02:30:56;6.83;;;4.70;;
13566;SDS011;6855;48.112;11.298;2022-08-18T02:33:25;5.73;;;5.17;;
13566;SDS011;6855;48.112;11.298;2022-08-18T02:35:52;6.67;;;4.53;;
13566;SDS011;6855;48.112;11.298;2022-08-18T02:38:20;5.00;;;4.10;;
13566;SDS011;6855;48.112;11.298;2022-08-18T02:40:55;4.80;;;4.30;;
13566;SDS011;6855;48.112;11.298;2022-08-18T02:43:22;6.20;;;5.13;;
13566;SDS011;6855;48.112;11.298;2022-08-18T02:45:49;10.57;;;4.37;;
13566;SDS011;6855;48.112;11.298;2022-08-18T02:48:17;4.80;;;4.30;;
13566;SDS011;6855;48.112;11.298;2022-08-18T02:50:48;6.87;;;5.43;;
13566;SDS011;6855;48.112;11.298;2022-08-18T02:53:15;5.00;;;4.50;;
13566;SDS011;6855;48.112;11.298;2022-08-18T02:55:46;6.17;;;4.60;;
13566;SDS011;6855;48.112;11.298;2022-08-18T02:58:14;5.30;;;4.80;;
13566;SDS011;6855;48.112;11.298;2022-08-18T03:00:41;4.50;;;4.10;;
13566;SDS011;6855;48.112;11.298;2022-08-18T03:03:08;5.43;;;4.57;;
13566;SDS011;6855;48.112;11.298;2022-08-18T03:05:37;4.93;;;4.30;;
13566;SDS011;6855;48.112;11.298;2022-08-18T03:08:06;5.23;;;4.73;;
13566;SDS011;6855;48.112;11.298;2022-08-18T03:10:34;5.10;;;4.33;;
13566;SDS011;6855;48.112;11.298;2022-08-18T03:13:01;10.87;;;4.83;;
13566;SDS011;6855;48.112;11.298;2022-08-18T03:15:29;5.23;;;4.73;;
13566;SDS011;6855;48.112;11.298;2022-08-18T03:17:56;8.87;;;5.17;;
13566;SDS011;6855;48.112;11.298;2022-08-18T03:20:23;5.30;;;4.80;;
13566;SDS011;6855;48.112;11.298;2022-08-18T03:22:50;6.43;;;5.50;;
13566;SDS011;6855;48.112;11.298;2022-08-18T03:25:19;11.40;;;4.90;;
13566;SDS011;6855;48.112;11.298;2022-08-18T03:27:46;5.80;;;5.20;;
13566;SDS011;6855;48.112;11.298;2022-08-18T03:30:13;5.90;;;5.03;;
13566;SDS011;6855;48.112;11.298;2022-08-18T03:32:46;5.07;;;4.60;;
13566;SDS011;6855;48.112;11.298;2022-08-18T03:35:14;5.60;;;4.90;;
13566;SDS011;6855;48.112;11.298;2022-08-18T03:37:41;5.60;;;5.00;;
13566;SDS011;6855;48.112;11.298;2022-08-18T03:40:09;5.23;;;4.60;;
13566;SDS011;6855;48.112;11.298;2022-08-18T03:42:38;5.40;;;4.60;;
13566;SDS011;6855;48.112;11.298;2022-08-18T03:45:06;5.67;;;5.17;;
13566;SDS011;6855;48.112;11.298;2022-08-18T03:47:33;7.70;;;5.00;;
13566;SDS011;6855;48.112;11.298;2022-08-18T03:50:01;5.20;;;4.70;;
13566;SDS011;6855;48.112;11.298;2022-08-18T03:52:28;8.83;;;4.50;;
13566;SDS011;6855;48.112;11.298;2022-08-18T03:54:55;5.30;;;4.80;;
13566;SDS011;6855;48.112;11.298;2022-08-18T03:57:24;7.73;;;4.80;;
13566;SDS011;6855;48.112;11.298;2022-08-18T03:59:52;7.80;;;5.03;;
13566;SDS011;6855;48.112;11.298;2022-08-18T04:02:20;7.50;;;5.57;;
13566;SDS011;6855;48.112;11.298;2022-08-18T04:04:47;10.20;;;4.50;;
13566;SDS011;6855;48.112;11.298;2022-08-18T04:07:15;6.20;;;4.73;;
13566;SDS011;6855;48.112;11.298;2022-08-18T04:09:43;5.70;;;4.77;;
13566;SDS011;6855;48.112;11.298;2022-08-18T04:12:13;5.60;;;5.10;;
13566;SDS011;6855;48.112;11.298;2022-08-18T04:14:41;5.87;;;4.93;;
13566;SDS011;6855;48.112;11.298;2022-08-18T04:17:12;5.40;;;4.63;;
13566;SDS011;6855;48.112;11.298;2022-08-18T04:19:39;4.90;;;4.40;;
13566;SDS011;6855;48.112;11.298;2022-08-18T04:22:06;5.30;;;4.20;;
13566;SDS011;6855;48.112;11.298;2022-08-18T04:24:34;7.07;;;5.20;;
13566;SDS011;6855;48.112;11.298;2022-08-18T04:27:02;6.47;;;5.43;;
13566;SDS011;6855;48.112;11.298;2022-08-18T04:29:30;5.13;;;4.63;;
13566;SDS011;6855;48.112;11.298;2022-08-18T04:31:59;6.83;;;4.97;;
13566;SDS011;6855;48.112;11.298;2022-08-18T04:34:28;7.00;;;5.07;;
13566;SDS011;6855;48.112;11.298;2022-08-18T04:36:55;5.20;;;4.70;;
13566;SDS011;6855;48.112;11.298;2022-08-18T04:39:22;5.50;;;5.00;;
13566;SDS011;6855;48.112;11.298;2022-08-18T04:41:50;8.30;;;5.30;;
13566;SDS011;6855;48.112;11.298;2022-08-18T04:44:17;5.90;;;4.73;;
13566;SDS011;6855;48.112;11.298;2022-08-18T04:46:46;6.03;;;4.70;;
13566;SDS011;6855;48.112;11.298;2022-08-18T04:49:15;7.93;;;5.57;;
13566;SDS011;6855;48.112;11.298;2022-08-18T04:51:45;7.00;;;4.93;;
13566;SDS011;6855;48.112;11.298;2022-08-18T04:54:34;8.10;;;5.20;;
13566;SDS011;6855;48.112;11.298;2022-08-18T04:57:05;5.60;;;4.83;;
13566;SDS011;6855;48.112;11.298;2022-08-18T04:59:33;6.03;;;4.80;;
13566;SDS011;6855;48.112;11.298;2022-08-18T05:02:00;6.17;;;5.00;;
13566;SDS011;6855;48.112;11.298;2022-08-18T05:04:32;5.20;;;4.70;;
13566;SDS011;6855;48.112;11.298;2022-08-18T05:07:00;6.23;;;5.63;;
13566;SDS011;6855;48.112;11.298;2022-08-18T05:09:28;7.10;;;4.93;;
13566;SDS011;6855;48.112;11.298;2022-08-18T05:11:58;6.17;;;4.40;;
13566;SDS011;6855;48.112;11.298;2022-08-18T05:14:25;6.33;;;5.27;;
13566;SDS011;6855;48.112;11.298;2022-08-18T05:16:56;6.67;;;5.30;;
13566;SDS011;6855;48.112;11.298;2022-08-18T05:19:24;7.43;;;4.53;;
13566;SDS011;6855;48.112;11.298;2022-08-18T05:21:51;5.50;;;4.77;;
13566;SDS011;6855;48.112;11.298;2022-08-18T05:24:20;6.40;;;5.17;;
13566;SDS011;6855;48.112;11.298;2022-08-18T05:26:49;4.53;;;4.13;;
13566;SDS011;6855;48.112;11.298;2022-08-18T05:29:17;9.63;;;4.80;;
13566;SDS011;6855;48.112;11.298;2022-08-18T05:31:47;5.30;;;4.73;;
13566;SDS011;6855;48.112;11.298;2022-08-18T05:34:14;8.67;;;5.50;;
13566;SDS011;6855;48.112;11.298;2022-08-18T05:36:45;7.53;;;5.00;;
13566;SDS011;6855;48.112;11.298;2022-08-18T05:39:19;5.50;;;4.70;;
13566;SDS011;6855;48.112;11.298;2022-08-18T05:41:50;6.83;;;5.27;;
13566;SDS011;6855;48.112;11.298;2022-08-18T05:44:19;6.33;;;5.13;;
13566;SDS011;6855;48.112;11.298;2022-08-18T05:46:49;9.23;;;5.30;;
13566;SDS011;6855;48.112;11.298;2022-08-18T05:49:17;7.93;;;6.20;;
13566;SDS011;6855;48.112;11.298;2022-08-18T05:51:45;6.17;;;5.57;;
13566;SDS011;6855;48.112;11.298;2022-08-18T05:54:13;6.00;;;5.17;;
13566;SDS011;6855;48.112;11.298;2022-08-18T05:57:01;6.80;;;4.90;;
13566;SDS011;6855;48.112;11.298;2022-08-18T05:59:31;6.37;;;5.80;;
13566;SDS011;6855;48.112;11.298;2022-08-18T06:01:59;8.77;;;5.37;;
13566;SDS011;6855;48.112;11.298;2022-08-18T06:04:32;6.03;;;5.40;;
13566;SDS011;6855;48.112;11.298;2022-08-18T06:07:02;6.87;;;5.13;;
13566;SDS011;6855;48.112;11.298;2022-08-18T06:09:31;7.03;;;5.90;;
13566;SDS011;6855;48.112;11.298;2022-08-18T06:12:03;8.20;;;5.80;;
13566;SDS011;6855;48.112;11.298;2022-08-18T06:14:35;8.80;;;5.87;;
13566;SDS011;6855;48.112;11.298;2022-08-18T06:19:51;7.33;;;6.10;;
13566;SDS011;6855;48.112;11.298;2022-08-18T06:22:37;9.20;;;6.10;;
13566;SDS011;6855;48.112;11.298;2022-08-18T06:25:10;6.67;;;5.30;;
13566;SDS011;6855;48.112;11.298;2022-08-18T06:27:45;9.60;;;6.07;;
13566;SDS011;6855;48.112;11.298;2022-08-18T06:30:20;6.80;;;5.40;;
13566;SDS011;6855;48.112;11.298;2022-08-18T06:32:55;6.50;;;5.80;;
13566;SDS011;6855;48.112;11.298;2022-08-18T06:35:28;6.27;;;5.67;;
13566;SDS011;6855;48.112;11.298;2022-08-18T06:38:00;6.90;;;5.70;;
13566;SDS011;6855;48.112;11.298;2022-08-18T06:40:47;9.40;;;5.03;;
13566;SDS011;6855;48.112;11.298;2022-08-18T06:43:16;9.33;;;7.03;;
13566;SDS011;6855;48.112;11.298;2022-08-18T06:45:44;6.93;;;6.13;;
13566;SDS011;6855;48.112;11.298;2022-08-18T06:48:16;6.50;;;5.90;;
13566;SDS011;6855;48.112;11.298;2022-08-18T06:50:48;7.30;;;6.53;;
13566;SDS011;6855;48.112;11.298;2022-08-18T06:53:16;6.37;;;5.33;;
13566;SDS011;6855;48.112;11.298;2022-08-18T06:55:44;9.00;;;6.60;;
13566;SDS011;6855;48.112;11.298;2022-08-18T06:58:21;9.70;;;7.67;;
13566;SDS011;6855;48.112;11.298;2022-08-18T07:00:55;6.43;;;5.83;;
13566;SDS011;6855;48.112;11.298;2022-08-18T07:03:38;7.97;;;6.00;;
13566;SDS011;6855;48.112;11.298;2022-08-18T07:06:07;6.47;;;5.40;;
13566;SDS011;6855;48.112;11.298;2022-08-18T07:08:36;6.57;;;5.87;;
13566;SDS011;6855;48.112;11.298;2022-08-18T07:11:10;6.30;;;5.03;;
13566;SDS011;6855;48.112;11.298;2022-08-18T07:13:40;7.00;;;5.40;;
13566;SDS011;6855;48.112;11.298;2022-08-18T07:16:15;5.90;;;4.83;;
13566;SDS011;6855;48.112;11.298;2022-08-18T07:18:42;7.43;;;5.00;;
13566;SDS011;6855;48.112;11.298;2022-08-18T07:21:10;5.40;;;4.90;;
13566;SDS011;6855;48.112;11.298;2022-08-18T07:23:56;5.90;;;5.30;;
13566;SDS011;6855;48.112;11.298;2022-08-18T07:26:24;8.23;;;4.60;;
13566;SDS011;6855;48.112;11.298;2022-08-18T07:28:53;4.70;;;4.20;;
13566;SDS011;6855;48.112;11.298;2022-08-18T07:31:33;6.10;;;4.33;;
13566;SDS011;6855;48.112;11.298;2022-08-18T07:34:02;6.83;;;4.87;;
13566;SDS011;6855;48.112;11.298;2022-08-18T07:36:31;5.93;;;4.43;;
13566;SDS011;6855;48.112;11.298;2022-08-18T07:39:02;4.17;;;3.83;;
13566;SDS011;6855;48.112;11.298;2022-08-18T07:41:31;4.90;;;4.50;;
13566;SDS011;6855;48.112;11.298;2022-08-18T07:44:05;4.50;;;4.10;;
13566;SDS011;6855;48.112;11.298;2022-08-18T07:46:34;6.60;;;4.30;;
13566;SDS011;6855;48.112;11.298;2022-08-18T07:49:03;4.43;;;4.00;;
13566;SDS011;6855;48.112;11.298;2022-08-18T07:51:34;4.40;;;3.93;;
13566;SDS011;6855;48.112;11.298;2022-08-18T07:54:09;6.13;;;4.37;;
13566;SDS011;6855;48.112;11.298;2022-08-18T07:56:40;4.70;;;4.13;;
13566;SDS011;6855;48.112;11.298;2022-08-18T07:59:12;6.23;;;4.20;;
13566;SDS011;6855;48.112;11.298;2022-08-18T08:01:43;6.13;;;4.20;;
13566;SDS011;6855;48.112;11.298;2022-08-18T08:04:14;5.50;;;4.27;;
13566;SDS011;6855;48.112;11.298;2022-08-18T08:06:44;5.30;;;4.60;;
13566;SDS011;6855;48.112;11.298;2022-08-18T08:09:16;4.80;;;4.40;;
13566;SDS011;6855;48.112;11.298;2022-08-18T08:11:48;5.63;;;4.20;;
13566;SDS011;6855;48.112;11.298;2022-08-18T08:14:29;4.30;;;3.80;;
13566;SDS011;6855;48.112;11.298;2022-08-18T08:17:02;6.00;;;4.47;;
13566;SDS011;6855;48.112;11.298;2022-08-18T08:19:38;4.90;;;4.50;;
13566;SDS011;6855;48.112;11.298;2022-08-18T08:22:09;5.40;;;4.30;;
13566;SDS011;6855;48.112;11.298;2022-08-18T08:24:40;5.70;;;5.17;;
13566;SDS011;6855;48.112;11.298;2022-08-18T08:27:09;4.93;;;4.53;;
13566;SDS011;6855;48.112;11.298;2022-08-18T08:29:41;7.03;;;4.67;;
13566;SDS011;6855;48.112;11.298;2022-08-18T08:32:13;5.67;;;3.93;;
13566;SDS011;6855;48.112;11.298;2022-08-18T08:34:42;4.90;;;4.50;;
13566;SDS011;6855;48.112;11.298;2022-08-18T08:37:11;4.43;;;4.10;;
13566;SDS011;6855;48.112;11.298;2022-08-18T08:39:41;5.53;;;4.47;;
13566;SDS011;6855;48.112;11.298;2022-08-18T08:42:11;4.57;;;4.20;;
13566;SDS011;6855;48.112;11.298;2022-08-18T08:44:44;4.40;;;4.00;;
13566;SDS011;6855;48.112;11.298;2022-08-18T08:47:16;5.67;;;4.00;;
13566;SDS011;6855;48.112;11.298;2022-08-18T08:49:45;4.87;;;4.40;;
13566;SDS011;6855;48.112;11.298;2022-08-18T08:52:15;5.20;;;4.70;;
13566;SDS011;6855;48.112;11.298;2022-08-18T08:54:45;6.43;;;4.90;;
13566;SDS011;6855;48.112;11.298;2022-08-18T08:57:14;5.80;;;5.30;;
13566;SDS011;6855;48.112;11.298;2022-08-18T08:59:43;4.60;;;4.17;;
13566;SDS011;6855;48.112;11.298;2022-08-18T09:05:02;5.73;;;4.70;;
13566;SDS011;6855;48.112;11.298;2022-08-18T09:07:35;5.50;;;5.00;;
13566;SDS011;6855;48.112;11.298;2022-08-18T09:10:25;5.40;;;5.00;;
13566;SDS011;6855;48.112;11.298;2022-08-18T09:13:00;5.70;;;5.20;;
13566;SDS011;6855;48.112;11.298;2022-08-18T09:15:37;5.10;;;4.40;;
13566;SDS011;6855;48.112;11.298;2022-08-18T09:18:11;5.33;;;4.93;;
13566;SDS011;6855;48.112;11.298;2022-08-18T09:20:47;5.57;;;5.07;;
13566;SDS011;6855;48.112;11.298;2022-08-18T09:23:17;4.40;;;4.10;;
13566;SDS011;6855;48.112;11.298;2022-08-18T09:25:46;5.30;;;4.87;;
13566;SDS011;6855;48.112;11.298;2022-08-18T09:28:15;6.43;;;5.57;;
13566;SDS011;6855;48.112;11.298;2022-08-18T09:30:45;4.70;;;4.10;;
13566;SDS011;6855;48.112;11.298;2022-08-18T09:33:33;4.67;;;4.20;;
13566;SDS011;6855;48.112;11.298;2022-08-18T09:36:07;5.73;;;5.23;;
13566;SDS011;6855;48.112;11.298;2022-08-18T09:38:37;4.80;;;3.80;;
13566;SDS011;6855;48.112;11.298;2022-08-18T09:41:31;8.83;;;5.03;;
13566;SDS011;6855;48.112;11.298;2022-08-18T09:44:02;6.93;;;4.77;;
13566;SDS011;6855;48.112;11.298;2022-08-18T09:46:50;5.13;;;4.70;;
13566;SDS011;6855;48.112;11.298;2022-08-18T09:54:47;5.10;;;4.67;;
13566;SDS011;6855;48.112;11.298;2022-08-18T09:57:18;5.10;;;4.70;;
13566;SDS011;6855;48.112;11.298;2022-08-18T09:59:50;6.10;;;5.50;;
13566;SDS011;6855;48.112;11.298;2022-08-18T10:07:44;4.77;;;4.30;;
13566;SDS011;6855;48.112;11.298;2022-08-18T10:10:17;6.80;;;6.20;;
13566;SDS011;6855;48.112;11.298;2022-08-18T10:12:49;5.70;;;5.20;;
13566;SDS011;6855;48.112;11.298;2022-08-18T10:15:20;5.90;;;4.90;;
13566;SDS011;6855;48.112;11.298;2022-08-18T10:17:55;6.87;;;5.50;;
13566;SDS011;6855;48.112;11.298;2022-08-18T10:20:29;4.97;;;4.57;;
13566;SDS011;6855;48.112;11.298;2022-08-18T10:23:00;9.03;;;5.00;;
13566;SDS011;6855;48.112;11.298;2022-08-18T10:25:30;8.90;;;5.50;;
13566;SDS011;6855;48.112;11.298;2022-08-18T10:27:57;7.13;;;5.37;;
13566;SDS011;6855;48.112;11.298;2022-08-18T10:36:05;6.10;;;5.50;;
13566;SDS011;6855;48.112;11.298;2022-08-18T10:41:18;6.10;;;5.50;;
13566;SDS011;6855;48.112;11.298;2022-08-18T10:43:46;7.37;;;6.37;;
13566;SDS011;6855;48.112;11.298;2022-08-18T10:46:14;6.33;;;5.73;;
13566;SDS011;6855;48.112;11.298;2022-08-18T10:48:42;6.03;;;5.00;;
13566;SDS011;6855;48.112;11.298;2022-08-18T10:51:12;8.13;;;5.63;;
13566;SDS011;6855;48.112;11.298;2022-08-18T10:53:43;5.87;;;5.30;;
13566;SDS011;6855;48.112;11.298;2022-08-18T10:56:20;5.90;;;5.40;;
13566;SDS011;6855;48.112;11.298;2022-08-18T10:58:56;5.77;;;5.27;;
13566;SDS011;6855;48.112;11.298;2022-08-18T11:01:29;10.90;;;5.97;;
13566;SDS011;6855;48.112;11.298;2022-08-18T11:04:01;6.77;;;5.97;;
13566;SDS011;6855;48.112;11.298;2022-08-18T11:06:36;6.10;;;5.60;;
13566;SDS011;6855;48.112;11.298;2022-08-18T11:09:03;6.40;;;5.80;;
13566;SDS011;6855;48.112;11.298;2022-08-18T11:11:33;6.40;;;5.90;;
13566;SDS011;6855;48.112;11.298;2022-08-18T11:14:05;6.03;;;5.53;;
13566;SDS011;6855;48.112;11.298;2022-08-18T11:16:36;5.77;;;5.33;;
13566;SDS011;6855;48.112;11.298;2022-08-18T11:19:09;5.50;;;4.80;;
13566;SDS011;6855;48.112;11.298;2022-08-18T11:21:38;6.03;;;5.03;;
13566;SDS011;6855;48.112;11.298;2022-08-18T11:24:07;6.53;;;5.30;;
13566;SDS011;6855;48.112;11.298;2022-08-18T11:26:38;7.00;;;5.37;;
13566;SDS011;6855;48.112;11.298;2022-08-18T11:29:23;7.30;;;4.80;;
13566;SDS011;6855;48.112;11.298;2022-08-18T11:31:52;6.87;;;4.10;;
13566;SDS011;6855;48.112;11.298;2022-08-18T11:34:23;5.80;;;5.30;;
13566;SDS011;6855;48.112;11.298;2022-08-18T11:36:54;8.80;;;5.27;;
13566;SDS011;6855;48.112;11.298;2022-08-18T11:39:21;5.20;;;4.80;;
13566;SDS011;6855;48.112;11.298;2022-08-18T11:41:50;5.60;;;5.10;;
13566;SDS011;6855;48.112;11.298;2022-08-18T11:44:21;4.70;;;4.30;;
13566;SDS011;6855;48.112;11.298;2022-08-18T11:47:07;4.27;;;3.80;;
13566;SDS011;6855;48.112;11.298;2022-08-18T11:49:53;5.40;;;4.90;;
13566;SDS011;6855;48.112;11.298;2022-08-18T11:52:23;5.07;;;4.67;;
13566;SDS011;6855;48.112;11.298;2022-08-18T11:54:51;4.50;;;4.10;;
13566;SDS011;6855;48.112;11.298;2022-08-18T12:03:03;5.40;;;4.90;;
13566;SDS011;6855;48.112;11.298;2022-08-18T12:05:39;5.20;;;4.73;;
13566;SDS011;6855;48.112;11.298;2022-08-18T12:08:14;4.27;;;3.87;;
13566;SDS011;6855;48.112;11.298;2022-08-18T12:10:42;5.70;;;5.10;;
13566;SDS011;6855;48.112;11.298;2022-08-18T12:13:09;6.63;;;5.97;;
13566;SDS011;6855;48.112;11.298;2022-08-18T12:15:36;5.43;;;4.50;;
13566;SDS011;6855;48.112;11.298;2022-08-18T12:18:05;5.30;;;4.73;;
13566;SDS011;6855;48.112;11.298;2022-08-18T12:23:17;8.37;;;5.17;;
13566;SDS011;6855;48.112;11.298;2022-08-18T12:25:44;7.53;;;5.67;;
13566;SDS011;6855;48.112;11.298;2022-08-18T12:28:12;5.20;;;4.80;;
13566;SDS011;6855;48.112;11.298;2022-08-18T12:30:39;8.90;;;4.83;;
13566;SDS011;6855;48.112;11.298;2022-08-18T12:33:10;5.87;;;5.43;;
13566;SDS011;6855;48.112;11.298;2022-08-18T12:35:38;9.00;;;6.00;;
13566;SDS011;6855;48.112;11.298;2022-08-18T12:38:05;6.13;;;5.53;;
13566;SDS011;6855;48.112;11.298;2022-08-18T12:40:32;5.80;;;5.30;;
13566;SDS011;6855;48.112;11.298;2022-08-18T12:42:59;5.83;;;5.23;;
13566;SDS011;6855;48.112;11.298;2022-08-18T12:45:27;6.30;;;5.80;;
13566;SDS011;6855;48.112;11.298;2022-08-18T12:47:55;7.83;;;5.37;;
13566;SDS011;6855;48.112;11.298;2022-08-18T12:50:25;6.13;;;5.63;;
13566;SDS011;6855;48.112;11.298;2022-08-18T12:52:52;6.10;;;5.40;;
13566;SDS011;6855;48.112;11.298;2022-08-18T12:55:19;4.77;;;4.40;;
13566;SDS011;6855;48.112;11.298;2022-08-18T12:57:46;6.87;;;4.40;;
13566;SDS011;6855;48.112;11.298;2022-08-18T13:00:14;6.83;;;5.53;;
13566;SDS011;6855;48.112;11.298;2022-08-18T13:02:41;5.50;;;5.00;;
13566;SDS011;6855;48.112;11.298;2022-08-18T13:05:08;5.67;;;5.17;;
13566;SDS011;6855;48.112;11.298;2022-08-18T13:07:37;5.83;;;5.33;;
13566;SDS011;6855;48.112;11.298;2022-08-18T13:10:06;5.90;;;5.40;;
13566;SDS011;6855;48.112;11.298;2022-08-18T13:12:33;8.27;;;5.80;;
13566;SDS011;6855;48.112;11.298;2022-08-18T13:15:01;6.80;;;5.80;;
13566;SDS011;6855;48.112;11.298;2022-08-18T13:17:30;8.30;;;6.00;;
13566;SDS011;6855;48.112;11.298;2022-08-18T13:19:58;5.33;;;4.93;;
13566;SDS011;6855;48.112;11.298;2022-08-18T13:22:26;5.20;;;4.80;;
13566;SDS011;6855;48.112;11.298;2022-08-18T13:24:55;6.53;;;5.97;;
13566;SDS011;6855;48.112;11.298;2022-08-18T13:27:22;7.63;;;6.27;;
13566;SDS011;6855;48.112;11.298;2022-08-18T13:29:50;7.77;;;6.23;;
13566;SDS011;6855;48.112;11.298;2022-08-18T13:32:17;5.33;;;4.90;;
13566;SDS011;6855;48.112;11.298;2022-08-18T13:34:45;6.23;;;5.73;;
13566;SDS011;6855;48.112;11.298;2022-08-18T13:37:12;6.30;;;5.80;;
13566;SDS011;6855;48.112;11.298;2022-08-18T13:39:39;7.27;;;6.40;;
13566;SDS011;6855;48.112;11.298;2022-08-18T13:42:11;7.33;;;6.67;;
13566;SDS011;6855;48.112;11.298;2022-08-18T13:44:38;6.47;;;5.97;;
13566;SDS011;6855;48.112;11.298;2022-08-18T13:47:06;5.73;;;5.23;;
13566;SDS011;6855;48.112;11.298;2022-08-18T13:49:34;8.13;;;5.63;;
13566;SDS011;6855;48.112;11.298;2022-08-18T13:52:01;7.10;;;6.00;;
13566;SDS011;6855;48.112;11.298;2022-08-18T13:54:29;8.00;;;5.90;;
13566;SDS011;6855;48.112;11.298;2022-08-18T13:56:57;6.47;;;5.87;;
13566;SDS011;6855;48.112;11.298;2022-08-18T13:59:28;8.30;;;5.70;;
13566;SDS011;6855;48.112;11.298;2022-08-18T14:01:57;8.97;;;6.07;;
13566;SDS011;6855;48.112;11.298;2022-08-18T14:04:25;6.70;;;6.00;;
13566;SDS011;6855;48.112;11.298;2022-08-18T14:06:52;7.20;;;6.50;;
13566;SDS011;6855;48.112;11.298;2022-08-18T14:09:20;6.73;;;5.47;;
13566;SDS011;6855;48.112;11.298;2022-08-18T14:11:47;6.00;;;5.40;;
13566;SDS011;6855;48.112;11.298;2022-08-18T14:14:14;7.33;;;6.63;;
13566;SDS011;6855;48.112;11.298;2022-08-18T14:16:43;8.53;;;6.10;;
13566;SDS011;6855;48.112;11.298;2022-08-18T14:19:11;6.47;;;5.90;;
13566;SDS011;6855;48.112;11.298;2022-08-18T14:22:04;6.03;;;5.53;;
13566;SDS011;6855;48.112;11.298;2022-08-18T14:24:49;8.17;;;5.80;;
13566;SDS011;6855;48.112;11.298;2022-08-18T14:27:34;6.83;;;5.20;;
13566;SDS011;6855;48.112;11.298;2022-08-18T14:30:03;6.63;;;6.03;;
13566;SDS011;6855;48.112;11.298;2022-08-18T14:32:33;8.03;;;5.70;;
13566;SDS011;6855;48.112;11.298;2022-08-18T14:35:00;6.93;;;5.90;;
13566;SDS011;6855;48.112;11.298;2022-08-18T14:37:28;8.93;;;6.70;;
13566;SDS011;6855;48.112;11.298;2022-08-18T14:39:55;6.30;;;5.80;;
13566;SDS011;6855;48.112;11.298;2022-08-18T14:42:23;8.07;;;4.90;;
13566;SDS011;6855;48.112;11.298;2022-08-18T14:44:50;7.03;;;5.93;;
13566;SDS011;6855;48.112;11.298;2022-08-18T14:47:17;10.83;;;6.33;;
13566;SDS011;6855;48.112;11.298;2022-08-18T14:49:46;7.73;;;6.10;;
13566;SDS011;6855;48.112;11.298;2022-08-18T14:52:13;6.87;;;5.60;;
13566;SDS011;6855;48.112;11.298;2022-08-18T14:54:41;6.37;;;5.77;;
13566;SDS011;6855;48.112;11.298;2022-08-18T14:57:08;6.50;;;5.90;;
13566;SDS011;6855;48.112;11.298;2022-08-18T14:59:40;7.47;;;6.50;;
13566;SDS011;6855;48.112;11.298;2022-08-18T15:02:08;7.87;;;6.83;;
13566;SDS011;6855;48.112;11.298;2022-08-18T15:04:36;8.47;;;6.60;;
13566;SDS011;6855;48.112;11.298;2022-08-18T15:07:04;6.33;;;5.50;;
13566;SDS011;6855;48.112;11.298;2022-08-18T15:09:32;7.30;;;5.53;;
13566;SDS011;6855;48.112;11.298;2022-08-18T15:11:59;6.50;;;5.40;;
13566;SDS011;6855;48.112;11.298;2022-08-18T15:14:27;6.03;;;5.53;;
13566;SDS011;6855;48.112;11.298;2022-08-18T15:16:55;5.80;;;5.40;;
13566;SDS011;6855;48.112;11.298;2022-08-18T15:19:22;7.50;;;6.50;;
13566;SDS011;6855;48.112;11.298;2022-08-18T15:21:50;7.10;;;6.47;;
13566;SDS011;6855;48.112;11.298;2022-08-18T15:24:39;8.50;;;6.43;;
13566;SDS011;6855;48.112;11.298;2022-08-18T15:27:29;6.97;;;6.27;;
13566;SDS011;6855;48.112;11.298;2022-08-18T15:29:56;7.17;;;6.47;;
13566;SDS011;6855;48.112;11.298;2022-08-18T15:32:24;7.43;;;6.53;;
13566;SDS011;6855;48.112;11.298;2022-08-18T15:34:51;7.60;;;6.17;;
13566;SDS011;6855;48.112;11.298;2022-08-18T15:37:18;7.77;;;6.90;;
13566;SDS011;6855;48.112;11.298;2022-08-18T15:39:47;9.57;;;7.17;;